createdAt,value
2018-08-02T00:00:14.930Z,7.55
2018-08-02T00:00:48.169Z,7.80
2018-08-02T00:01:21.150Z,7.72
2018-08-02T00:01:54.209Z,8.00
2018-08-02T00:02:28.170Z,6.60
2018-08-02T00:03:01.269Z,6.92
2018-08-02T00:03:34.425Z,6.53
2018-08-02T00:04:07.610Z,7.00
2018-08-02T00:04:40.709Z,6.83
2018-08-02T00:05:13.740Z,6.65
2018-08-02T00:05:46.889Z,6.30
2018-08-02T00:06:19.981Z,6.40
2018-08-02T00:06:53.166Z,6.72
2018-08-02T00:07:26.112Z,7.30
2018-08-02T00:07:59.160Z,6.78
2018-08-02T00:08:32.165Z,8.28
2018-08-02T00:09:05.850Z,7.40
2018-08-02T00:09:38.771Z,6.40
2018-08-02T00:10:12.004Z,7.33
2018-08-02T00:10:45.021Z,6.60
2018-08-02T00:11:18.041Z,6.58
2018-08-02T00:11:51.150Z,6.72
2018-08-02T00:12:24.315Z,6.08
2018-08-02T00:12:57.224Z,6.03
2018-08-02T00:13:30.361Z,6.70
2018-08-02T00:14:03.310Z,7.10
2018-08-02T00:14:36.292Z,6.22
2018-08-02T00:15:09.767Z,7.00
2018-08-02T00:15:42.785Z,5.50
2018-08-02T00:16:15.857Z,6.00
2018-08-02T00:16:48.831Z,5.95
2018-08-02T00:17:21.972Z,5.90
2018-08-02T00:17:55.450Z,5.40
2018-08-02T00:18:28.358Z,5.75
2018-08-02T00:19:01.293Z,5.58
2018-08-02T00:19:34.237Z,5.65
2018-08-02T00:20:09.060Z,5.15
2018-08-02T00:20:41.990Z,5.05
2018-08-02T00:21:15.199Z,5.03
2018-08-02T00:21:48.132Z,4.33
2018-08-02T00:22:21.340Z,4.65
2018-08-02T00:22:54.253Z,4.40
2018-08-02T00:23:27.258Z,4.55
2018-08-02T00:24:00.453Z,4.65
2018-08-02T00:24:33.401Z,4.30
2018-08-02T00:25:07.468Z,4.62
2018-08-02T00:25:40.389Z,4.58
2018-08-02T00:26:13.310Z,4.80
2018-08-02T00:26:46.313Z,4.80
2018-08-02T00:27:19.216Z,4.75
2018-08-02T00:27:52.365Z,3.95
2018-08-02T00:28:25.276Z,3.62
2018-08-02T00:28:58.414Z,4.12
2018-08-02T00:29:31.354Z,3.72
2018-08-02T00:30:05.027Z,4.35
2018-08-02T00:30:37.991Z,3.85
2018-08-02T00:31:11.206Z,4.25
2018-08-02T00:31:44.601Z,3.50
2018-08-02T00:32:17.543Z,3.70
2018-08-02T00:32:50.691Z,4.05
2018-08-02T00:33:23.633Z,3.80
2018-08-02T00:33:56.746Z,4.10
2018-08-02T00:34:29.673Z,3.80
2018-08-02T00:35:02.854Z,3.60
2018-08-02T00:35:35.973Z,3.52
2018-08-02T00:36:09.133Z,4.20
2018-08-02T00:36:42.637Z,3.40
2018-08-02T00:37:15.590Z,3.45
2018-08-02T00:37:48.642Z,3.22
2018-08-02T00:38:21.873Z,3.50
2018-08-02T00:38:54.787Z,3.75
2018-08-02T00:39:27.689Z,3.95
2018-08-02T00:40:00.647Z,4.08
2018-08-02T00:40:33.677Z,3.90
2018-08-02T00:41:06.644Z,4.12
2018-08-02T00:41:40.309Z,4.10
2018-08-02T00:42:13.259Z,3.42
2018-08-02T00:42:46.484Z,3.37
2018-08-02T00:43:19.517Z,3.60
2018-08-02T00:43:52.962Z,3.52
2018-08-02T00:44:25.903Z,3.22
2018-08-02T00:44:58.825Z,3.00
2018-08-02T00:45:31.758Z,3.00
2018-08-02T00:46:04.693Z,3.70
2018-08-02T00:46:37.974Z,4.58
2018-08-02T00:47:10.959Z,3.58
2018-08-02T00:47:43.899Z,3.37
2018-08-02T00:48:16.868Z,3.87
2018-08-02T00:48:49.801Z,3.30
2018-08-02T00:49:22.746Z,3.85
2018-08-02T00:49:55.857Z,3.27
2018-08-02T00:50:28.988Z,3.33
2018-08-02T00:51:02.218Z,3.40
2018-08-02T00:51:35.138Z,4.20
2018-08-02T00:52:08.521Z,3.85
2018-08-02T00:52:41.489Z,3.45
2018-08-02T00:53:14.414Z,3.50
2018-08-02T00:53:47.596Z,3.12
2018-08-02T00:54:20.617Z,3.75
2018-08-02T00:54:54.141Z,3.45
2018-08-02T00:55:27.321Z,4.25
2018-08-02T00:56:00.472Z,3.35
2018-08-02T00:56:33.641Z,3.45
2018-08-02T00:57:07.126Z,4.50
2018-08-02T00:57:40.349Z,4.10
2018-08-02T00:58:13.552Z,4.40
2018-08-02T00:58:46.510Z,3.52
2018-08-02T00:59:19.565Z,3.72
2018-08-02T00:59:52.719Z,4.05
2018-08-02T01:00:25.668Z,3.40
2018-08-02T01:00:58.919Z,3.70
2018-08-02T01:01:31.869Z,3.77
2018-08-02T01:02:04.880Z,4.10
2018-08-02T01:02:37.931Z,4.00
2018-08-02T01:03:10.919Z,3.60
2018-08-02T01:03:43.844Z,3.40
2018-08-02T01:04:16.953Z,4.30
2018-08-02T01:04:49.874Z,3.58
2018-08-02T01:05:23.023Z,3.62
2018-08-02T01:05:56.208Z,3.25
2018-08-02T01:06:29.362Z,4.65
2018-08-02T01:07:02.659Z,4.08
2018-08-02T01:07:35.734Z,3.60
2018-08-02T01:08:08.860Z,3.20
2018-08-02T01:08:41.813Z,3.70
2018-08-02T01:09:14.953Z,3.58
2018-08-02T01:09:48.146Z,3.52
2018-08-02T01:10:21.261Z,4.03
2018-08-02T01:10:54.215Z,3.75
2018-08-02T01:11:27.324Z,3.22
2018-08-02T01:12:00.463Z,3.35
2018-08-02T01:12:33.399Z,3.65
2018-08-02T01:13:06.479Z,3.42
2018-08-02T01:13:39.408Z,3.25
2018-08-02T01:14:12.342Z,2.70
2018-08-02T01:14:45.480Z,3.27
2018-08-02T01:15:18.750Z,3.33
2018-08-02T01:15:51.817Z,3.42
2018-08-02T01:16:25.051Z,3.62
2018-08-02T01:16:59.209Z,3.27
2018-08-02T01:17:32.314Z,3.70
2018-08-02T01:18:05.426Z,3.40
2018-08-02T01:18:38.361Z,4.03
2018-08-02T01:19:11.536Z,3.40
2018-08-02T01:19:44.749Z,3.77
2018-08-02T01:20:17.682Z,3.47
2018-08-02T01:20:50.729Z,3.22
2018-08-02T01:21:23.975Z,3.20
2018-08-02T01:21:57.153Z,3.52
2018-08-02T01:22:30.356Z,3.40
2018-08-02T01:23:03.745Z,3.20
2018-08-02T01:23:36.653Z,3.30
2018-08-02T01:24:09.566Z,3.08
2018-08-02T01:24:42.719Z,3.30
2018-08-02T01:25:15.920Z,3.52
2018-08-02T01:25:49.018Z,3.95
2018-08-02T01:26:21.961Z,3.83
2018-08-02T01:26:54.880Z,3.00
2018-08-02T01:27:27.987Z,3.20
2018-08-02T01:28:00.942Z,3.55
2018-08-02T01:28:33.998Z,3.30
2018-08-02T01:29:06.988Z,3.50
2018-08-02T01:29:40.090Z,3.70
2018-08-02T01:30:13.387Z,3.62
2018-08-02T01:30:46.338Z,3.60
2018-08-02T01:31:19.333Z,3.42
2018-08-02T01:31:52.310Z,3.20
2018-08-02T01:32:25.531Z,3.37
2018-08-02T01:32:58.526Z,3.30
2018-08-02T01:33:31.458Z,3.33
2018-08-02T01:34:04.403Z,3.92
2018-08-02T01:34:37.354Z,3.35
2018-08-02T01:35:10.359Z,2.80
2018-08-02T01:35:43.301Z,3.25
2018-08-02T01:36:16.416Z,3.30
2018-08-02T01:36:49.545Z,4.70
2018-08-02T01:37:23.960Z,4.00
2018-08-02T01:37:57.265Z,3.83
2018-08-02T01:38:30.201Z,3.02
2018-08-02T01:39:03.599Z,3.10
2018-08-02T01:39:36.538Z,3.65
2018-08-02T01:40:09.549Z,2.92
2018-08-02T01:40:42.598Z,3.30
2018-08-02T01:41:15.621Z,3.60
2018-08-02T01:41:48.795Z,3.55
2018-08-02T01:42:21.772Z,4.17
2018-08-02T01:42:54.709Z,3.30
2018-08-02T01:43:27.693Z,3.50
2018-08-02T01:44:06.373Z,3.20
2018-08-02T01:44:50.698Z,3.33
2018-08-02T01:45:23.626Z,4.33
2018-08-02T01:45:56.593Z,3.75
2018-08-02T01:46:29.690Z,3.72
2018-08-02T01:47:02.723Z,4.00
2018-08-02T01:47:35.622Z,4.03
2018-08-02T01:48:08.769Z,3.70
2018-08-02T01:48:41.727Z,3.60
2018-08-02T01:49:14.852Z,3.90
2018-08-02T01:49:47.784Z,4.35
2018-08-02T01:50:21.776Z,4.00
2018-08-02T01:50:54.688Z,4.03
2018-08-02T01:51:27.868Z,4.15
2018-08-02T01:52:01.050Z,4.70
2018-08-02T01:52:34.230Z,4.17
2018-08-02T01:53:07.156Z,4.20
2018-08-02T01:53:40.237Z,4.10
2018-08-02T01:54:13.134Z,4.10
2018-08-02T01:54:47.209Z,4.35
2018-08-02T01:55:20.117Z,4.40
2018-08-02T01:55:53.704Z,4.20
2018-08-02T01:56:26.642Z,3.90
2018-08-02T01:56:59.690Z,4.45
2018-08-02T01:57:32.803Z,4.50
2018-08-02T01:58:05.824Z,4.50
2018-08-02T01:58:38.777Z,4.15
2018-08-02T01:59:11.707Z,4.30
2018-08-02T01:59:44.696Z,4.67
2018-08-02T02:00:17.633Z,4.42
2018-08-02T02:00:50.646Z,4.83
2018-08-02T02:01:23.891Z,4.35
2018-08-02T02:01:56.811Z,4.08
2018-08-02T02:02:29.909Z,3.80
2018-08-02T02:03:02.859Z,4.25
2018-08-02T02:03:35.832Z,3.95
2018-08-02T02:04:08.806Z,3.92
2018-08-02T02:04:42.048Z,4.67
2018-08-02T02:05:15.202Z,4.37
2018-08-02T02:05:48.137Z,4.10
2018-08-02T02:06:21.084Z,4.25
2018-08-02T02:06:54.205Z,3.92
2018-08-02T02:07:27.256Z,4.03
2018-08-02T02:08:00.188Z,4.42
2018-08-02T02:08:33.299Z,4.28
2018-08-02T02:09:07.136Z,3.87
2018-08-02T02:09:40.241Z,3.80
2018-08-02T02:10:13.182Z,3.77
2018-08-02T02:10:46.375Z,4.22
2018-08-02T02:11:19.301Z,4.05
2018-08-02T02:11:52.676Z,4.05
2018-08-02T02:12:25.597Z,3.87
2018-08-02T02:12:58.572Z,4.72
2018-08-02T02:13:31.497Z,4.40
2018-08-02T02:14:04.510Z,4.45
2018-08-02T02:14:37.735Z,4.55
2018-08-02T02:15:10.678Z,4.25
2018-08-02T02:15:43.869Z,4.25
2018-08-02T02:16:16.922Z,4.35
2018-08-02T02:16:50.058Z,4.42
2018-08-02T02:17:23.077Z,4.30
2018-08-02T02:17:56.152Z,4.83
2018-08-02T02:18:29.181Z,5.08
2018-08-02T02:19:02.459Z,4.37
2018-08-02T02:19:35.420Z,4.85
2018-08-02T02:20:08.418Z,4.10
2018-08-02T02:20:41.374Z,4.90
2018-08-02T02:21:14.545Z,4.53
2018-08-02T02:21:47.526Z,5.05
2018-08-02T02:22:20.468Z,4.83
2018-08-02T02:22:53.422Z,5.10
2018-08-02T02:23:26.604Z,5.35
2018-08-02T02:23:59.548Z,4.95
2018-08-02T02:24:32.464Z,5.65
2018-08-02T02:25:05.671Z,5.22
2018-08-02T02:25:38.657Z,5.67
2018-08-02T02:26:11.585Z,5.05
2018-08-02T02:26:44.530Z,5.53
2018-08-02T02:27:17.460Z,5.12
2018-08-02T02:27:50.377Z,5.30
2018-08-02T02:28:23.306Z,5.67
2018-08-02T02:28:56.314Z,5.40
2018-08-02T02:29:29.273Z,6.17
2018-08-02T02:30:02.197Z,5.60
2018-08-02T02:30:35.174Z,5.75
2018-08-02T02:31:08.658Z,4.95
2018-08-02T02:31:41.637Z,6.30
2018-08-02T02:32:14.568Z,5.92
2018-08-02T02:32:48.084Z,6.45
2018-08-02T02:33:21.161Z,6.67
2018-08-02T02:33:54.306Z,6.10
2018-08-02T02:34:27.230Z,6.25
2018-08-02T02:35:00.227Z,5.80
2018-08-02T02:35:33.162Z,6.53
2018-08-02T02:36:09.056Z,6.87
2018-08-02T02:36:42.027Z,5.95
2018-08-02T02:37:14.967Z,6.40
2018-08-02T02:37:47.910Z,6.45
2018-08-02T02:38:20.844Z,5.90
2018-08-02T02:38:53.802Z,5.37
2018-08-02T02:39:26.765Z,5.25
2018-08-02T02:39:59.714Z,5.37
2018-08-02T02:40:32.689Z,6.35
2018-08-02T02:41:05.633Z,5.80
2018-08-02T02:41:38.677Z,5.67
2018-08-02T02:42:11.673Z,5.97
2018-08-02T02:42:44.615Z,6.05
2018-08-02T02:43:17.637Z,5.85
2018-08-02T02:43:50.642Z,5.95
2018-08-02T02:44:23.599Z,6.90
2018-08-02T02:44:56.562Z,6.60
2018-08-02T02:45:29.468Z,6.58
2018-08-02T02:46:02.433Z,6.78
2018-08-02T02:46:36.235Z,6.40
2018-08-02T02:47:09.177Z,6.42
2018-08-02T02:47:42.142Z,6.12
2018-08-02T02:48:15.063Z,6.00
2018-08-02T02:48:48.010Z,6.53
2018-08-02T02:49:20.986Z,6.20
2018-08-02T02:49:53.878Z,6.17
2018-08-02T02:50:26.798Z,6.03
2018-08-02T02:50:59.969Z,5.70
2018-08-02T02:51:33.002Z,6.50
2018-08-02T02:52:06.116Z,6.12
2018-08-02T02:52:39.073Z,6.47
2018-08-02T02:53:12.023Z,6.78
2018-08-02T02:53:44.981Z,6.42
2018-08-02T02:54:17.922Z,5.55
2018-08-02T02:54:50.905Z,5.90
2018-08-02T02:55:23.882Z,6.30
2018-08-02T02:55:56.818Z,5.30
2018-08-02T02:56:29.739Z,5.90
2018-08-02T02:57:02.695Z,6.42
2018-08-02T02:57:35.669Z,6.40
2018-08-02T02:58:08.610Z,5.78
2018-08-02T02:58:41.588Z,6.33
2018-08-02T02:59:14.510Z,6.83
2018-08-02T02:59:47.478Z,6.60
2018-08-02T03:00:20.455Z,6.42
2018-08-02T03:00:53.424Z,6.45
2018-08-02T03:01:26.478Z,6.45
2018-08-02T03:01:59.706Z,5.70
2018-08-02T03:02:32.649Z,6.40
2018-08-02T03:03:05.601Z,5.78
2018-08-02T03:03:38.621Z,6.60
2018-08-02T03:04:11.741Z,6.08
2018-08-02T03:04:44.666Z,6.30
2018-08-02T03:05:17.689Z,6.25
2018-08-02T03:05:50.699Z,5.95
2018-08-02T03:06:23.941Z,5.60
2018-08-02T03:06:56.906Z,5.85
2018-08-02T03:07:29.830Z,5.80
2018-08-02T03:08:02.794Z,5.75
2018-08-02T03:08:35.771Z,5.50
2018-08-02T03:09:09.429Z,5.95
2018-08-02T03:09:42.396Z,6.35
2018-08-02T03:10:15.416Z,6.10
2018-08-02T03:10:48.340Z,5.45
2018-08-02T03:11:21.258Z,6.10
2018-08-02T03:11:54.397Z,5.37
2018-08-02T03:12:27.354Z,5.40
2018-08-02T03:13:00.364Z,5.25
2018-08-02T03:13:33.309Z,5.95
2018-08-02T03:14:06.294Z,5.40
2018-08-02T03:14:39.237Z,5.60
2018-08-02T03:15:12.178Z,5.37
2018-08-02T03:15:45.191Z,5.62
2018-08-02T03:16:18.272Z,6.12
2018-08-02T03:16:51.209Z,6.20
2018-08-02T03:17:24.122Z,5.67
2018-08-02T03:17:57.306Z,4.92
2018-08-02T03:18:30.271Z,5.50
2018-08-02T03:19:03.194Z,5.72
2018-08-02T03:19:36.141Z,4.65
2018-08-02T03:20:09.095Z,5.20
2018-08-02T03:20:42.073Z,5.33
2018-08-02T03:21:15.081Z,5.53
2018-08-02T03:21:48.010Z,5.50
2018-08-02T03:22:20.941Z,5.72
2018-08-02T03:22:53.904Z,5.28
2018-08-02T03:23:26.851Z,5.28
2018-08-02T03:23:59.804Z,5.05
2018-08-02T03:24:32.766Z,5.42
2018-08-02T03:25:05.697Z,5.33
2018-08-02T03:25:38.771Z,5.50
2018-08-02T03:26:11.733Z,5.42
2018-08-02T03:26:44.696Z,5.55
2018-08-02T03:27:17.692Z,4.95
2018-08-02T03:27:50.635Z,5.00
2018-08-02T03:28:23.596Z,5.03
2018-08-02T03:28:56.565Z,4.97
2018-08-02T03:29:29.661Z,5.10
2018-08-02T03:30:02.814Z,4.80
2018-08-02T03:30:35.739Z,4.97
2018-08-02T03:31:08.680Z,4.80
2018-08-02T03:31:41.631Z,5.95
2018-08-02T03:32:14.556Z,5.17
2018-08-02T03:32:47.501Z,5.47
2018-08-02T03:33:20.436Z,5.40
2018-08-02T03:33:53.617Z,5.28
2018-08-02T03:34:26.565Z,5.50
2018-08-02T03:34:59.589Z,4.80
2018-08-02T03:35:32.565Z,4.97
2018-08-02T03:36:05.816Z,4.70
2018-08-02T03:36:38.790Z,5.25
2018-08-02T03:37:12.026Z,4.80
2018-08-02T03:37:44.984Z,5.72
2018-08-02T03:38:17.901Z,5.67
2018-08-02T03:38:50.998Z,4.90
2018-08-02T03:39:23.920Z,4.92
2018-08-02T03:39:56.919Z,5.08
2018-08-02T03:40:29.840Z,5.03
2018-08-02T03:41:02.791Z,5.40
2018-08-02T03:41:35.784Z,5.25
2018-08-02T03:42:08.725Z,4.60
2018-08-02T03:42:41.724Z,4.83
2018-08-02T03:43:14.747Z,5.37
2018-08-02T03:43:47.689Z,4.67
2018-08-02T03:44:20.644Z,5.42
2018-08-02T03:44:53.590Z,5.12
2018-08-02T03:45:26.517Z,4.45
2018-08-02T03:45:59.467Z,5.20
2018-08-02T03:46:32.509Z,5.40
2018-08-02T03:47:05.426Z,5.67
2018-08-02T03:47:38.381Z,4.95
2018-08-02T03:48:11.370Z,4.83
2018-08-02T03:48:47.307Z,4.92
2018-08-02T03:49:20.243Z,4.50
2018-08-02T03:49:53.165Z,4.72
2018-08-02T03:50:26.094Z,5.50
2018-08-02T03:50:59.038Z,4.80
2018-08-02T03:51:32.057Z,4.22
2018-08-02T03:52:05.026Z,5.03
2018-08-02T03:52:37.957Z,4.60
2018-08-02T03:53:10.872Z,4.50
2018-08-02T03:53:43.865Z,5.15
2018-08-02T03:54:16.837Z,5.40
2018-08-02T03:54:49.768Z,5.65
2018-08-02T03:55:22.769Z,4.35
2018-08-02T03:55:55.710Z,4.30
2018-08-02T03:56:28.786Z,4.90
2018-08-02T03:57:01.758Z,5.53
2018-08-02T03:57:34.735Z,5.50
2018-08-02T03:58:07.754Z,5.42
2018-08-02T03:58:40.774Z,5.15
2018-08-02T03:59:13.709Z,4.65
2018-08-02T03:59:46.622Z,4.87
2018-08-02T04:00:19.529Z,4.47
2018-08-02T04:00:52.464Z,4.28
2018-08-02T04:01:25.380Z,4.83
2018-08-02T04:01:58.441Z,4.60
2018-08-02T04:02:31.386Z,4.95
2018-08-02T04:03:04.344Z,4.30
2018-08-02T04:03:37.278Z,4.70
2018-08-02T04:04:10.232Z,4.40
2018-08-02T04:04:43.185Z,4.12
2018-08-02T04:05:16.181Z,4.12
2018-08-02T04:05:49.151Z,5.05
2018-08-02T04:06:22.076Z,4.90
2018-08-02T04:06:54.997Z,4.55
2018-08-02T04:07:27.944Z,5.00
2018-08-02T04:08:00.904Z,4.53
2018-08-02T04:08:33.893Z,3.90
2018-08-02T04:09:07.334Z,4.60
2018-08-02T04:09:40.295Z,5.17
2018-08-02T04:10:13.261Z,4.65
2018-08-02T04:10:46.274Z,4.85
2018-08-02T04:11:19.225Z,4.85
2018-08-02T04:11:52.552Z,4.75
2018-08-02T04:12:25.483Z,4.78
2018-08-02T04:12:58.456Z,4.87
2018-08-02T04:13:31.396Z,4.95
2018-08-02T04:14:04.513Z,4.85
2018-08-02T04:14:37.740Z,4.85
2018-08-02T04:15:11.391Z,4.50
2018-08-02T04:15:44.377Z,4.58
2018-08-02T04:16:17.351Z,4.55
2018-08-02T04:16:50.475Z,4.20
2018-08-02T04:17:23.426Z,4.40
2018-08-02T04:17:56.438Z,4.80
2018-08-02T04:18:29.494Z,4.87
2018-08-02T04:19:02.495Z,4.30
2018-08-02T04:19:35.423Z,4.83
2018-08-02T04:20:08.558Z,5.22
2018-08-02T04:20:41.529Z,4.78
2018-08-02T04:21:14.717Z,4.20
2018-08-02T04:21:47.799Z,5.10
2018-08-02T04:22:20.994Z,4.25
2018-08-02T04:22:54.282Z,4.20
2018-08-02T04:23:27.549Z,3.87
2018-08-02T04:24:00.533Z,4.12
2018-08-02T04:24:33.484Z,3.75
2018-08-02T04:25:06.688Z,4.12
2018-08-02T04:25:39.676Z,4.92
2018-08-02T04:26:12.684Z,4.55
2018-08-02T04:26:45.815Z,3.65
2018-08-02T04:27:18.933Z,3.80
2018-08-02T04:27:51.858Z,3.65
2018-08-02T04:28:24.989Z,3.85
2018-08-02T04:28:57.931Z,3.87
2018-08-02T04:29:31.201Z,3.60
2018-08-02T04:30:04.886Z,3.70
2018-08-02T04:30:38.079Z,3.50
2018-08-02T04:31:11.617Z,3.60
2018-08-02T04:31:44.750Z,4.30
2018-08-02T04:32:17.859Z,3.95
2018-08-02T04:32:50.826Z,3.92
2018-08-02T04:33:23.804Z,3.85
2018-08-02T04:33:56.766Z,4.28
2018-08-02T04:34:29.686Z,3.80
2018-08-02T04:35:02.709Z,3.33
2018-08-02T04:35:36.021Z,3.40
2018-08-02T04:36:10.114Z,3.17
2018-08-02T04:36:43.390Z,3.52
2018-08-02T04:37:16.515Z,3.65
2018-08-02T04:37:49.642Z,3.70
2018-08-02T04:38:22.546Z,3.70
2018-08-02T04:38:55.534Z,3.72
2018-08-02T04:39:28.579Z,3.58
2018-08-02T04:40:01.737Z,3.70
2018-08-02T04:40:35.198Z,4.10
2018-08-02T04:41:08.460Z,3.40
2018-08-02T04:41:41.578Z,3.90
2018-08-02T04:42:14.746Z,3.60
2018-08-02T04:42:47.711Z,3.90
2018-08-02T04:43:20.853Z,4.20
2018-08-02T04:43:54.053Z,3.58
2018-08-02T04:44:27.164Z,3.60
2018-08-02T04:45:00.068Z,3.37
2018-08-02T04:45:33.282Z,2.85
2018-08-02T04:46:06.403Z,3.15
2018-08-02T04:48:15.573Z,3.60
2018-08-02T04:48:48.583Z,3.42
2018-08-02T04:49:21.515Z,3.35
2018-08-02T04:49:54.482Z,3.17
2018-08-02T04:50:27.509Z,3.37
2018-08-02T04:51:00.426Z,2.92
2018-08-02T04:51:33.557Z,3.87
2018-08-02T04:52:06.518Z,3.72
2018-08-02T04:52:39.430Z,3.67
2018-08-02T04:53:12.490Z,3.15
2018-08-02T04:53:45.533Z,3.33
2018-08-02T04:54:18.531Z,4.12
2018-08-02T04:54:51.442Z,3.40
2018-08-02T04:55:24.625Z,4.62
2018-08-02T04:55:57.617Z,4.17
2018-08-02T04:56:30.954Z,3.98
2018-08-02T04:57:04.179Z,3.92
2018-08-02T04:57:37.296Z,3.60
2018-08-02T04:58:10.237Z,3.65
2018-08-02T04:58:43.178Z,3.87
2018-08-02T04:59:16.213Z,4.00
2018-08-02T04:59:49.157Z,3.55
2018-08-02T05:00:22.135Z,3.60
2018-08-02T05:00:55.077Z,4.15
2018-08-02T05:01:28.162Z,3.65
2018-08-02T05:02:01.203Z,3.70
2018-08-02T05:02:34.205Z,3.77
2018-08-02T05:03:07.278Z,4.15
2018-08-02T05:03:40.245Z,3.60
2018-08-02T05:04:13.226Z,3.45
2018-08-02T05:04:46.176Z,3.90
2018-08-02T05:05:19.192Z,3.50
2018-08-02T05:05:52.126Z,3.20
2018-08-02T05:06:25.102Z,3.77
2018-08-02T05:06:58.350Z,3.67
2018-08-02T05:07:31.549Z,4.00
2018-08-02T05:08:04.860Z,3.37
2018-08-02T05:08:37.803Z,3.50
2018-08-02T05:09:11.750Z,3.08
2018-08-02T05:09:45.006Z,3.80
2018-08-02T05:10:17.967Z,3.30
2018-08-02T05:10:51.175Z,3.77
2018-08-02T05:11:24.082Z,3.10
2018-08-02T05:11:57.232Z,3.77
2018-08-02T05:12:30.359Z,3.37
2018-08-02T05:13:03.315Z,4.08
2018-08-02T05:13:36.462Z,3.52
2018-08-02T05:14:09.397Z,3.27
2018-08-02T05:14:42.401Z,3.50
2018-08-02T05:15:15.321Z,3.30
2018-08-02T05:15:48.968Z,3.00
2018-08-02T05:16:22.129Z,5.15
2018-08-02T05:16:55.169Z,3.80
2018-08-02T05:17:28.350Z,3.50
2018-08-02T05:18:01.592Z,4.22
2018-08-02T05:18:34.866Z,3.83
2018-08-02T05:19:07.791Z,3.45
2018-08-02T05:19:40.808Z,4.08
2018-08-02T05:20:13.739Z,3.75
2018-08-02T05:20:47.163Z,4.03
2018-08-02T05:21:20.151Z,3.83
2018-08-02T05:21:53.226Z,4.00
2018-08-02T05:22:26.422Z,3.47
2018-08-02T05:22:59.396Z,3.67
2018-08-02T05:23:32.350Z,3.42
2018-08-02T05:24:05.357Z,3.90
2018-08-02T05:24:38.406Z,3.75
2018-08-02T05:25:11.465Z,3.08
2018-08-02T05:25:44.621Z,3.30
2018-08-02T05:26:17.715Z,3.52
2018-08-02T05:26:50.887Z,3.62
2018-08-02T05:27:24.090Z,3.45
2018-08-02T05:27:57.279Z,3.10
2018-08-02T05:28:30.481Z,3.42
2018-08-02T05:29:03.572Z,3.83
2018-08-02T05:29:37.093Z,4.30
2018-08-02T05:30:10.286Z,3.50
2018-08-02T05:30:43.896Z,3.40
2018-08-02T05:31:16.961Z,3.42
2018-08-02T05:31:50.037Z,3.10
2018-08-02T05:32:24.170Z,3.90
2018-08-02T05:32:57.076Z,4.50
2018-08-02T05:33:30.245Z,3.55
2018-08-02T05:34:03.435Z,3.90
2018-08-02T05:34:36.240Z,3.47
2018-08-02T05:35:09.263Z,4.08
2018-08-02T05:35:42.254Z,3.85
2018-08-02T05:36:15.491Z,3.42
2018-08-02T05:36:48.588Z,3.37
2018-08-02T05:37:20.989Z,3.58
2018-08-02T05:37:53.970Z,3.25
2018-08-02T05:38:27.002Z,3.50
2018-08-02T05:39:00.631Z,3.02
2018-08-02T05:39:33.728Z,3.08
2018-08-02T05:40:06.805Z,3.22
2018-08-02T05:40:39.754Z,3.50
2018-08-02T05:41:13.037Z,3.90
2018-08-02T05:41:46.080Z,3.27
2018-08-02T05:42:19.007Z,3.45
2018-08-02T05:42:52.122Z,3.87
2018-08-02T05:43:25.386Z,4.10
2018-08-02T05:43:58.317Z,3.47
2018-08-02T05:44:31.252Z,3.60
2018-08-02T05:45:04.593Z,3.65
2018-08-02T05:45:37.739Z,3.17
2018-08-02T05:46:10.715Z,3.20
2018-08-02T05:46:43.792Z,3.47
2018-08-02T05:47:17.017Z,3.62
2018-08-02T05:47:50.012Z,3.95
2018-08-02T05:48:23.120Z,3.20
2018-08-02T05:48:56.067Z,3.77
2018-08-02T05:49:29.145Z,3.72
2018-08-02T05:50:02.201Z,3.50
2018-08-02T05:50:35.143Z,3.05
2018-08-02T05:51:08.294Z,3.30
2018-08-02T05:51:41.469Z,3.52
2018-08-02T05:52:14.658Z,3.40
2018-08-02T05:52:47.829Z,3.67
2018-08-02T05:53:21.026Z,3.45
2018-08-02T05:53:54.138Z,3.60
2018-08-02T05:54:27.665Z,3.80
2018-08-02T05:55:00.822Z,3.30
2018-08-02T05:55:33.985Z,3.52
2018-08-02T05:56:07.002Z,4.20
2018-08-02T05:56:40.073Z,3.52
2018-08-02T05:57:13.245Z,3.85
2018-08-02T05:57:46.390Z,3.20
2018-08-02T05:58:19.408Z,3.50
2018-08-02T05:58:52.753Z,3.62
2018-08-02T05:59:25.685Z,3.67
2018-08-02T05:59:58.728Z,3.95
2018-08-02T06:00:31.701Z,4.30
2018-08-02T06:01:04.993Z,4.12
2018-08-02T06:01:38.054Z,3.83
2018-08-02T06:02:11.255Z,3.75
2018-08-02T06:02:44.410Z,3.30
2018-08-02T06:03:17.387Z,4.00
2018-08-02T06:03:50.541Z,4.37
2018-08-02T06:04:23.537Z,3.83
2018-08-02T06:04:56.586Z,4.05
2018-08-02T06:05:29.652Z,4.30
2018-08-02T06:06:02.579Z,4.50
2018-08-02T06:06:35.528Z,4.47
2018-08-02T06:07:08.484Z,4.08
2018-08-02T06:07:41.453Z,4.53
2018-08-02T06:08:14.506Z,4.10
2018-08-02T06:08:47.502Z,4.00
2018-08-02T06:09:20.524Z,3.80
2018-08-02T06:09:53.570Z,3.90
2018-08-02T06:10:26.524Z,3.60
2018-08-02T06:10:59.525Z,4.00
2018-08-02T06:11:32.491Z,4.17
2018-08-02T06:12:05.504Z,4.70
2018-08-02T06:12:38.671Z,4.20
2018-08-02T06:13:11.850Z,3.98
2018-08-02T06:13:44.811Z,4.12
2018-08-02T06:14:18.055Z,4.62
2018-08-02T06:14:51.012Z,4.17
2018-08-02T06:15:23.914Z,4.40
2018-08-02T06:15:56.866Z,4.22
2018-08-02T06:16:30.000Z,4.00
2018-08-02T06:17:02.990Z,5.00
2018-08-02T06:17:35.911Z,3.67
2018-08-02T06:18:08.889Z,4.83
2018-08-02T06:18:42.094Z,4.10
2018-08-02T06:19:15.177Z,3.60
2018-08-02T06:19:48.162Z,4.17
2018-08-02T06:20:21.153Z,3.80
2018-08-02T06:20:54.055Z,4.45
2018-08-02T06:21:27.035Z,4.80
2018-08-02T06:22:00.165Z,3.77
2018-08-02T06:22:33.280Z,4.10
2018-08-02T06:23:06.283Z,4.03
2018-08-02T06:23:39.374Z,4.05
2018-08-02T06:24:12.679Z,4.22
2018-08-02T06:24:45.686Z,4.05
2018-08-02T06:25:18.639Z,4.47
2018-08-02T06:25:51.559Z,4.67
2018-08-02T06:26:24.529Z,3.67
2018-08-02T06:26:57.482Z,4.00
2018-08-02T06:27:30.506Z,4.15
2018-08-02T06:28:03.420Z,3.92
2018-08-02T06:28:36.394Z,4.00
2018-08-02T06:29:09.422Z,4.10
2018-08-02T06:29:42.374Z,4.22
2018-08-02T06:30:15.319Z,4.45
2018-08-02T06:30:48.295Z,4.00
2018-08-02T06:31:21.324Z,3.87
2018-08-02T06:31:54.308Z,4.50
2018-08-02T06:32:27.388Z,3.75
2018-08-02T06:33:00.396Z,4.25
2018-08-02T06:33:33.459Z,4.35
2018-08-02T06:34:06.494Z,3.95
2018-08-02T06:34:39.413Z,4.20
2018-08-02T06:35:12.479Z,3.55
2018-08-02T06:35:45.459Z,4.22
2018-08-02T06:36:18.425Z,3.95
2018-08-02T06:36:51.398Z,4.50
2018-08-02T06:37:24.345Z,4.25
2018-08-02T06:37:57.349Z,4.03
2018-08-02T06:38:30.340Z,3.85
2018-08-02T06:39:05.245Z,4.00
2018-08-02T06:39:38.437Z,3.90
2018-08-02T06:40:12.473Z,3.90
2018-08-02T06:40:45.546Z,4.15
2018-08-02T06:41:18.764Z,3.98
2018-08-02T06:41:51.714Z,3.90
2018-08-02T06:42:24.742Z,3.80
2018-08-02T06:42:57.790Z,4.05
2018-08-02T06:43:35.797Z,3.98
2018-08-02T06:44:08.772Z,3.80
2018-08-02T06:44:41.953Z,3.98
2018-08-02T06:45:14.898Z,3.55
2018-08-02T06:45:48.025Z,4.20
2018-08-02T06:46:21.333Z,3.30
2018-08-02T06:46:54.368Z,4.37
2018-08-02T06:48:34.479Z,4.12
2018-08-02T06:49:07.456Z,3.55
2018-08-02T06:49:40.742Z,3.52
2018-08-02T06:50:14.223Z,4.37
2018-08-02T06:50:47.198Z,3.30
2018-08-02T06:51:20.559Z,3.33
2018-08-02T06:51:53.570Z,3.50
2018-08-02T06:52:26.537Z,3.65
2018-08-02T06:52:59.498Z,3.77
2018-08-02T06:53:32.816Z,3.90
2018-08-02T06:54:05.813Z,4.03
2018-08-02T06:54:38.796Z,3.12
2018-08-02T06:55:12.047Z,3.35
2018-08-02T06:55:45.013Z,3.85
2018-08-02T06:56:18.055Z,3.35
2018-08-02T06:56:51.875Z,3.47
2018-08-02T06:57:26.213Z,3.30
2018-08-02T06:57:59.848Z,3.75
2018-08-02T06:58:32.793Z,3.98
2018-08-02T06:59:05.952Z,3.55
2018-08-02T06:59:38.928Z,4.28
2018-08-02T07:00:12.895Z,3.45
2018-08-02T07:00:45.964Z,3.50
2018-08-02T07:01:18.961Z,4.10
2018-08-02T07:01:51.879Z,4.00
2018-08-02T07:02:25.325Z,3.80
2018-08-02T07:02:58.253Z,3.40
2018-08-02T07:03:31.483Z,3.72
2018-08-02T07:04:04.449Z,4.20
2018-08-02T07:04:37.721Z,3.60
2018-08-02T07:05:10.720Z,3.30
2018-08-02T07:05:43.685Z,3.72
2018-08-02T07:06:16.600Z,3.70
2018-08-02T07:06:49.794Z,3.25
2018-08-02T07:07:23.012Z,3.22
2018-08-02T07:07:56.055Z,3.98
2018-08-02T07:08:28.990Z,3.67
2018-08-02T07:09:02.116Z,3.92
2018-08-02T07:09:35.034Z,3.98
2018-08-02T07:10:08.217Z,3.90
2018-08-02T07:10:41.151Z,3.50
2018-08-02T07:11:14.275Z,3.27
2018-08-02T07:11:47.505Z,3.52
2018-08-02T07:12:20.461Z,3.60
2018-08-02T07:12:53.571Z,3.55
2018-08-02T07:13:26.560Z,3.67
2018-08-02T07:13:59.510Z,4.00
2018-08-02T07:14:32.447Z,3.50
2018-08-02T07:15:05.995Z,3.80
2018-08-02T07:15:38.937Z,3.45
2018-08-02T07:16:11.911Z,4.15
2018-08-02T07:16:44.831Z,3.45
2018-08-02T07:17:17.834Z,3.90
2018-08-02T07:17:50.826Z,3.42
2018-08-02T07:18:23.903Z,3.87
2018-08-02T07:18:56.886Z,3.60
2018-08-02T07:19:29.825Z,3.87
2018-08-02T07:20:02.843Z,3.37
2018-08-02T07:20:36.537Z,4.05
2018-08-02T07:21:09.490Z,4.50
2018-08-02T07:21:42.472Z,3.60
2018-08-02T07:22:15.485Z,3.85
2018-08-02T07:22:48.494Z,3.75
2018-08-02T07:23:21.519Z,3.50